createdAt,value
2023-03-22T00:04:46.363Z,11.38
2023-03-22T00:09:48.490Z,10.93
2023-03-22T00:14:50.610Z,9.88
2023-03-22T00:19:54.734Z,10.65
2023-03-22T00:24:56.844Z,9.07
2023-03-22T00:29:58.994Z,10.13
2023-03-22T00:35:02.124Z,13.25
2023-03-22T00:40:06.209Z,11.98
2023-03-22T00:45:09.645Z,13.13
2023-03-22T00:50:12.010Z,10.77
2023-03-22T00:55:14.667Z,12.48
2023-03-22T01:00:17.082Z,12.60
2023-03-22T01:05:22.205Z,13.77
2023-03-22T01:10:24.630Z,13.68
2023-03-22T01:15:26.850Z,13.07
2023-03-22T01:20:29.245Z,14.23
2023-03-22T01:25:31.507Z,15.23
2023-03-22T01:30:33.806Z,13.50
2023-03-22T01:35:36.685Z,13.65
2023-03-22T01:40:41.084Z,12.73
2023-03-22T01:45:44.077Z,12.98
2023-03-22T01:50:50.057Z,13.65
2023-03-22T01:55:53.539Z,12.73
2023-03-22T02:01:01.518Z,14.02
2023-03-22T02:06:38.579Z,14.65
2023-03-22T02:11:54.755Z,11.63
2023-03-22T02:17:15.037Z,13.15
2023-03-22T02:22:30.616Z,15.88
2023-03-22T02:27:38.759Z,14.57
2023-03-22T02:32:52.799Z,13.65
2023-03-22T02:38:18.054Z,11.98
2023-03-22T02:43:38.937Z,11.38
2023-03-22T02:48:53.715Z,9.98
2023-03-22T02:53:59.026Z,12.73
2023-03-22T02:59:03.387Z,11.00
2023-03-22T03:04:07.644Z,12.50
2023-03-22T03:09:10.127Z,11.07
2023-03-22T03:14:26.304Z,11.85
2023-03-22T03:19:33.500Z,12.95
2023-03-22T03:24:38.709Z,9.27
2023-03-22T03:29:43.156Z,9.02
2023-03-22T03:34:57.482Z,9.43
2023-03-22T03:40:11.255Z,7.80
2023-03-22T03:45:15.779Z,10.27
2023-03-22T03:50:17.946Z,10.10
2023-03-22T03:55:20.954Z,10.25
2023-03-22T04:00:23.256Z,10.30
2023-03-22T04:05:54.406Z,11.55
2023-03-22T04:10:57.957Z,10.90
2023-03-22T04:16:02.492Z,11.13
2023-03-22T04:21:09.030Z,10.73
2023-03-22T04:26:22.311Z,9.40
2023-03-22T04:31:43.069Z,10.43
2023-03-22T04:37:06.081Z,9.85
2023-03-22T04:42:11.903Z,8.15
2023-03-22T04:47:15.075Z,7.93
2023-03-22T04:52:18.268Z,8.50
2023-03-22T04:57:27.637Z,9.18
2023-03-22T05:02:29.864Z,10.20
2023-03-22T05:07:32.185Z,10.45
2023-03-22T05:12:36.748Z,10.38
2023-03-22T05:17:51.720Z,9.95
2023-03-22T05:22:57.216Z,9.40
2023-03-22T05:28:03.689Z,8.07
2023-03-22T05:33:32.223Z,9.10
2023-03-22T05:38:34.512Z,8.68
2023-03-22T05:43:39.426Z,10.10
2023-03-22T05:48:41.968Z,9.07
2023-03-22T05:53:45.807Z,9.25
2023-03-22T05:58:52.358Z,9.88
2023-03-22T06:03:56.944Z,11.18
2023-03-22T06:09:17.259Z,12.25
2023-03-22T06:14:24.413Z,12.60
2023-03-22T06:19:46.784Z,14.45
2023-03-22T06:24:50.441Z,11.73
2023-03-22T06:30:00.712Z,13.15
2023-03-22T06:35:03.431Z,12.98
2023-03-22T06:40:05.977Z,12.43
2023-03-22T06:45:09.413Z,10.50
2023-03-22T06:50:15.026Z,11.70
2023-03-22T06:55:46.533Z,12.00
2023-03-22T07:00:58.308Z,14.30
2023-03-22T07:06:03.070Z,19.33
2023-03-22T07:11:07.389Z,15.75
2023-03-22T07:16:10.039Z,16.40
2023-03-22T07:21:23.359Z,17.23
2023-03-22T07:26:31.085Z,17.30
2023-03-22T07:31:38.270Z,13.75
2023-03-22T07:36:45.088Z,13.82
2023-03-22T07:41:48.219Z,13.70
2023-03-22T07:47:10.715Z,13.93
2023-03-22T07:52:19.043Z,12.65
2023-03-22T07:57:21.211Z,16.17
2023-03-22T08:02:29.756Z,15.65
2023-03-22T08:07:34.484Z,13.88
2023-03-22T08:12:36.735Z,10.60
2023-03-22T08:17:49.995Z,13.48
2023-03-22T08:23:01.299Z,10.45
2023-03-22T08:28:21.860Z,10.90
2023-03-22T08:33:25.674Z,11.45
2023-03-22T08:38:28.308Z,10.95
2023-03-22T08:43:31.340Z,9.68
2023-03-22T08:48:34.141Z,9.32
2023-03-22T08:53:59.175Z,8.95
2023-03-22T08:59:31.094Z,7.78
2023-03-22T09:04:59.626Z,8.75
2023-03-22T09:10:02.044Z,9.98
2023-03-22T09:15:07.044Z,10.38
2023-03-22T09:20:13.033Z,10.02
2023-03-22T09:25:17.918Z,11.98
2023-03-22T09:30:23.499Z,9.93
2023-03-22T09:35:26.306Z,15.05
2023-03-22T09:40:33.185Z,12.60
2023-03-22T09:45:41.984Z,14.00
2023-03-22T09:50:47.068Z,10.40
2023-03-22T09:55:52.044Z,11.45
2023-03-22T10:00:54.430Z,10.68
2023-03-22T10:06:05.585Z,9.85
2023-03-22T10:11:19.607Z,10.32
2023-03-22T10:16:29.859Z,10.10
2023-03-22T10:21:32.977Z,10.48
2023-03-22T10:26:38.911Z,6.55
2023-03-22T10:36:43.958Z,7.70
2023-03-22T10:41:46.888Z,8.07
2023-03-22T10:46:49.924Z,9.50
2023-03-22T10:51:54.893Z,7.10
2023-03-22T10:56:56.989Z,8.00
2023-03-22T11:02:01.958Z,8.02
2023-03-22T11:07:04.258Z,7.40
2023-03-22T11:12:12.542Z,7.82
2023-03-22T11:17:21.258Z,6.20
2023-03-22T11:22:26.058Z,5.53
2023-03-22T11:27:29.506Z,7.10
2023-03-22T11:32:41.031Z,5.65
2023-03-22T11:37:44.577Z,7.47
2023-03-22T11:42:47.494Z,5.95
2023-03-22T11:47:49.904Z,4.35
2023-03-22T11:52:52.820Z,4.88
2023-03-22T11:57:58.528Z,4.72
2023-03-22T12:03:00.760Z,5.18
2023-03-22T12:08:21.923Z,5.35
2023-03-22T12:13:29.034Z,8.43
2023-03-22T12:18:34.713Z,7.20
2023-03-22T12:23:37.200Z,4.65
2023-03-22T12:28:53.618Z,5.20
2023-03-22T12:33:57.042Z,5.63
2023-03-22T12:39:00.066Z,4.85
2023-03-22T12:44:14.941Z,6.13
2023-03-22T12:49:17.059Z,6.65
2023-03-22T12:54:20.599Z,5.90
2023-03-22T12:59:28.112Z,4.95
2023-03-22T13:04:32.846Z,5.05
2023-03-22T13:09:37.303Z,5.13
2023-03-22T13:14:56.426Z,6.53
2023-03-22T13:20:08.185Z,5.30
2023-03-22T13:25:11.208Z,6.65
2023-03-22T13:30:20.825Z,5.10
2023-03-22T13:35:41.730Z,5.97
2023-03-22T13:40:47.481Z,7.25
2023-03-22T13:46:04.117Z,5.70
2023-03-22T13:51:11.703Z,5.80
2023-03-22T13:56:14.619Z,6.25
2023-03-22T14:01:16.795Z,5.38
2023-03-22T14:06:28.319Z,4.85
2023-03-22T14:11:36.848Z,6.15
2023-03-22T14:16:43.788Z,7.05
2023-03-22T14:21:48.879Z,8.02
